Time;durP1;ratioP1;P1;durP2;ratioP2;P2;SDS_P1;SDS_P2;PMS_P1;PMS_P2;Temp;Humidity;BMP_temperature;BMP_pressure;BME280_temperature;BME280_humidity;BME280_pressure;Samples;Min_cycle;Max_cycle;Signal;HPM_P1;HPM_P2
2022/07/12 00:02:02;;;;;;;;;;;;;;;15.73;75.96;102344.69;5096195;28;19912;-85
2022/07/12 00:04:28;;;;;;;;;;;;;;;15.72;75.88;102340.34;5096774;28;19911;-86
2022/07/12 00:06:53;;;;;;;;;;;;;;;15.71;75.99;102341.25;5096750;28;19912;-86
2022/07/12 00:09:19;;;;;;;;;;;;;;;15.70;76.10;102336.88;5096539;28;20379;-86
2022/07/12 00:11:44;;;;;;;;;;;;;;;15.67;75.87;102335.19;5096903;28;19911;-86
2022/07/12 00:14:09;;;;;;;;;;;;;;;15.64;76.10;102332.59;5096692;28;19923;-85
2022/07/12 00:16:34;;;;;;;;;;;;;;;15.60;76.10;102331.78;5096286;28;20017;-86
2022/07/12 00:19:00;;;;;;;;;;;;;;;15.56;76.04;102330.06;5096489;28;19947;-85
2022/07/12 00:21:25;;;;;;;;;;;;;;;15.50;76.10;102327.53;5096899;28;19912;-85
2022/07/12 00:23:50;;;;;;;;;;;;;;;15.47;76.22;102327.56;5095951;28;19934;-86
2022/07/12 00:26:15;;;;;;;;;;;;;;;15.43;76.20;102329.38;5099117;28;20359;-86
2022/07/12 00:28:41;;;;;;;;;;;;;;;15.39;76.18;102332.03;5117363;28;19961;-86
2022/07/12 00:31:06;;;;;;;;;;;;;;;15.35;76.26;102327.72;5099003;28;19916;-85
2022/07/12 00:33:31;;;;;;;;;;;;;;;15.29;76.26;102326.91;5096719;28;19923;-86
2022/07/12 00:35:56;;;;;;;;;;;;;;;15.26;76.33;102326.06;5095149;28;19911;-85
2022/07/12 00:38:21;;;;;;;;;;;;;;;15.22;76.48;102324.38;5096330;28;19916;-85
2022/07/12 00:40:47;;;;;;;;;;;;;;;15.19;76.65;102327.91;5096723;28;19919;-85
2022/07/12 00:43:12;;;;;;;;;;;;;;;15.15;76.56;102320.97;5095639;28;20018;-85
2022/07/12 00:45:37;;;;;;;;;;;;;;;15.12;76.75;102314.03;5096344;28;19912;-86
2022/07/12 00:48:03;;;;;;;;;;;;;;;15.10;76.67;102322.75;5096075;28;19958;-86
2022/07/12 00:50:28;;;;;;;;;;;;;;;15.09;76.80;102326.25;5095509;28;19919;-86
2022/07/12 00:52:54;;;;;;;;;;;;;;;15.06;76.76;102323.69;5095885;28;19916;-85
2022/07/12 00:55:20;;;;;;;;;;;;;;;15.03;76.64;102321.09;5096176;28;19912;-86
2022/07/12 00:57:47;;;;;;;;;;;;;;;15.01;76.75;102315.88;5095162;28;19990;-85
2022/07/12 01:00:14;;;;;;;;;;;;;;;14.99;76.92;102320.25;5095748;28;19912;-86
2022/07/12 01:02:40;;;;;;;;;;;;;;;14.95;76.95;102319.44;5096101;28;19916;-86
2022/07/12 01:05:06;;;;;;;;;;;;;;;14.95;76.87;102322.03;5097838;28;19912;-86
2022/07/12 01:07:32;;;;;;;;;;;;;;;14.93;76.98;102325.53;5116689;28;19920;-85
2022/07/12 01:09:58;;;;;;;;;;;;;;;14.90;77.09;102329.06;5107625;28;19918;-86
2022/07/12 01:12:24;;;;;;;;;;;;;;;14.90;77.02;102330.81;5095003;28;19911;-86
2022/07/12 01:14:49;;;;;;;;;;;;;;;14.88;77.14;102330.81;5095636;28;20260;-86
2022/07/12 01:17:15;;;;;;;;;;;;;;;14.85;77.18;102328.25;5100654;28;19912;-86
2022/07/12 01:19:40;;;;;;;;;;;;;;;14.80;77.24;102328.28;5115518;28;19912;-86
2022/07/12 01:22:08;;;;;;;;;;;;;;;14.76;77.32;102326.56;5115454;28;19918;-85
2022/07/12 01:24:33;;;;;;;;;;;;;;;14.75;77.41;102342.28;5116315;28;19964;-86
2022/07/12 01:26:58;;;;;;;;;;;;;;;14.72;77.50;102342.31;5115497;28;20014;-86
2022/07/12 01:29:24;;;;;;;;;;;;;;;14.71;77.42;102340.56;5115772;28;20278;-85
2022/07/12 01:31:49;;;;;;;;;;;;;;;14.69;77.35;102337.97;5115714;28;20371;-86
2022/07/12 01:34:14;;;;;;;;;;;;;;;14.67;77.61;102342.34;5100606;28;19916;-85
2022/07/12 01:36:40;;;;;;;;;;;;;;;14.67;77.66;102352.78;5095152;28;19912;-86
2022/07/12 01:39:06;;;;;;;;;;;;;;;14.63;77.65;102351.94;5095090;28;19938;-85
2022/07/12 01:41:31;;;;;;;;;;;;;;;14.59;77.48;102347.59;5094828;28;19915;-86
2022/07/12 01:43:57;;;;;;;;;;;;;;;14.58;77.77;102350.22;5110911;28;19961;-86
2022/07/12 01:46:22;;;;;;;;;;;;;;;14.55;77.77;102353.72;5114959;28;19926;-85
2022/07/12 01:48:47;;;;;;;;;;;;;;;14.54;77.82;102343.28;5115469;28;19973;-86
2022/07/12 01:51:13;;;;;;;;;;;;;;;14.52;77.66;102344.16;5115101;28;20007;-85
2022/07/12 01:53:38;;;;;;;;;;;;;;;14.52;77.72;102344.16;5115092;28;20333;-85
2022/07/12 01:56:03;;;;;;;;;;;;;;;14.50;77.78;102345.06;5115124;28;19911;-86
2022/07/12 01:58:29;;;;;;;;;;;;;;;14.45;77.67;102341.59;5111109;28;19911;-86
2022/07/12 02:00:54;;;;;;;;;;;;;;;14.40;77.87;102344.25;5093941;28;20002;-85
2022/07/12 02:03:19;;;;;;;;;;;;;;;14.36;77.98;102343.41;5095090;28;19965;-86
2022/07/12 02:05:46;;;;;;;;;;;;;;;14.35;78.09;102338.22;5094500;28;19912;-85
2022/07/12 02:08:12;;;;;;;;;;;;;;;14.34;77.97;102333.88;5093933;28;19912;-85
2022/07/12 02:10:37;;;;;;;;;;;;;;;14.32;78.14;102339.06;5093649;28;19919;-86
2022/07/12 02:13:03;;;;;;;;;;;;;;;14.30;78.24;102340.81;5094199;28;19916;-85
2022/07/12 02:15:28;;;;;;;;;;;;;;;14.29;78.33;102341.72;5093959;28;19912;-85
2022/07/12 02:17:53;;;;;;;;;;;;;;;14.28;78.13;102339.09;5094224;28;19966;-86
2022/07/12 02:20:18;;;;;;;;;;;;;;;14.25;78.16;102328.69;5094452;28;20006;-85
2022/07/12 02:22:43;;;;;;;;;;;;;;;14.21;78.25;102325.22;5093774;28;19907;-85
2022/07/12 02:25:09;;;;;;;;;;;;;;;14.18;78.32;102323.50;5112946;28;20385;-85
2022/07/12 02:27:34;;;;;;;;;;;;;;;14.18;78.52;102327.88;5100915;28;20382;-86
2022/07/12 02:29:59;;;;;;;;;;;;;;;14.16;78.55;102337.47;5092895;28;19977;-86
2022/07/12 02:32:24;;;;;;;;;;;;;;;14.14;78.43;102339.22;5094130;28;19919;-85
2022/07/12 02:34:49;;;;;;;;;;;;;;;14.10;78.46;102335.75;5093900;28;19916;-85
2022/07/12 02:37:15;;;;;;;;;;;;;;;14.10;78.63;102334.88;5093221;28;20364;-86
2022/07/12 02:39:40;;;;;;;;;;;;;;;14.10;78.33;102329.66;5094031;28;20002;-86
2022/07/12 02:42:05;;;;;;;;;;;;;;;14.06;78.60;102331.41;5093434;28;19962;-85
2022/07/12 02:44:30;;;;;;;;;;;;;;;14.04;78.55;102335.78;5093224;28;20317;-86
2022/07/12 02:46:55;;;;;;;;;;;;;;;14.01;78.70;102336.66;5093612;28;19912;-85
2022/07/12 02:49:21;;;;;;;;;;;;;;;14.00;78.72;102339.31;5094115;28;20359;-85
2022/07/12 02:51:46;;;;;;;;;;;;;;;13.97;78.67;102336.69;5093204;28;20324;-85
2022/07/12 02:54:11;;;;;;;;;;;;;;;13.96;78.91;102337.56;5096692;28;20402;-85
2022/07/12 02:56:36;;;;;;;;;;;;;;;13.95;78.78;102339.34;5111874;28;19919;-85
2022/07/12 02:59:01;;;;;;;;;;;;;;;13.92;78.68;102334.13;5114052;28;20287;-85
2022/07/12 03:01:27;;;;;;;;;;;;;;;13.87;78.71;102336.75;5114095;28;19934;-85
2022/07/12 03:03:52;;;;;;;;;;;;;;;13.83;78.88;102332.41;5113159;28;19911;-85
2022/07/12 03:06:17;;;;;;;;;;;;;;;13.81;78.79;102333.31;5114021;28;19990;-86
2022/07/12 03:08:42;;;;;;;;;;;;;;;13.78;78.66;102331.59;5114123;28;19935;-86
2022/07/12 03:11:07;;;;;;;;;;;;;;;13.75;78.94;102334.19;5113091;28;19916;-85
2022/07/12 03:13:33;;;;;;;;;;;;;;;13.71;79.01;102337.69;5114239;28;19911;-86
2022/07/12 03:15:59;;;;;;;;;;;;;;;13.68;79.26;102333.34;5113861;28;20250;-86
2022/07/12 03:18:25;;;;;;;;;;;;;;;13.65;78.93;102332.50;5113131;28;19915;-85
2022/07/12 03:20:50;;;;;;;;;;;;;;;13.60;79.14;102324.72;5109557;28;20278;-85
2022/07/12 03:23:15;;;;;;;;;;;;;;;13.56;79.06;102323.84;5093705;28;19965;-85
2022/07/12 03:25:40;;;;;;;;;;;;;;;13.55;79.29;102326.44;5092959;28;19923;-85
2022/07/12 03:28:06;;;;;;;;;;;;;;;13.53;79.11;102328.19;5093105;28;20394;-86
2022/07/12 03:30:31;;;;;;;;;;;;;;;13.51;79.16;102328.22;5093079;28;20294;-85
2022/07/12 03:32:57;;;;;;;;;;;;;;;13.51;79.13;102335.19;5092541;28;19920;-85
2022/07/12 03:35:23;;;;;;;;;;;;;;;13.50;79.29;102326.47;5093296;28;20011;-85
2022/07/12 03:37:49;;;;;;;;;;;;;;;13.48;79.25;102324.75;5092995;28;19935;-85
2022/07/12 03:40:15;;;;;;;;;;;;;;;13.46;79.46;102326.50;5092683;28;20287;-85
2022/07/12 03:42:41;;;;;;;;;;;;;;;13.44;79.50;102326.50;5093120;28;20374;-86
2022/07/12 03:45:06;;;;;;;;;;;;;;;13.46;79.37;102332.56;5093021;28;19912;-85
2022/07/12 03:47:32;;;;;;;;;;;;;;;13.46;79.41;102334.31;5092648;28;19999;-85
2022/07/12 03:49:57;;;;;;;;;;;;;;;13.44;79.50;102334.34;5092632;28;19912;-85
2022/07/12 03:52:22;;;;;;;;;;;;;;;13.40;79.55;102332.59;5093411;28;19915;-85
2022/07/12 03:54:48;;;;;;;;;;;;;;;13.39;79.52;102333.44;5092320;28;20283;-85
2022/07/12 03:57:14;;;;;;;;;;;;;;;13.36;79.96;102329.09;5092729;28;19919;-85
2022/07/12 03:59:39;;;;;;;;;;;;;;;13.35;80.24;102329.09;5093409;28;19919;-86
2022/07/12 04:02:05;;;;;;;;;;;;;;;13.35;79.98;102339.53;5092290;28;19911;-85
2022/07/12 04:04:30;;;;;;;;;;;;;;;13.33;79.77;102336.94;5093104;28;19929;-85
2022/07/12 04:06:55;;;;;;;;;;;;;;;13.32;79.77;102329.97;5092567;28;19912;-85
2022/07/12 04:09:20;;;;;;;;;;;;;;;13.31;80.18;102330.84;5093432;28;20375;-85
2022/07/12 04:11:46;;;;;;;;;;;;;;;13.28;80.10;102317.84;5092584;28;20421;-85
2022/07/12 04:14:11;;;;;;;;;;;;;;;13.28;79.85;102316.09;5092133;28;19920;-85
2022/07/12 04:16:36;;;;;;;;;;;;;;;13.27;80.21;102318.72;5096745;28;19911;-85
2022/07/12 04:19:02;;;;;;;;;;;;;;;13.25;79.98;102325.66;5112600;28;20386;-86
2022/07/12 04:21:27;;;;;;;;;;;;;;;13.25;79.89;102329.13;5112358;28;20275;-85
2022/07/12 04:23:52;;;;;;;;;;;;;;;13.28;80.01;102323.91;5112944;28;20408;-85
2022/07/12 04:26:17;;;;;;;;;;;;;;;13.32;80.01;102335.19;5113382;28;19919;-86
2022/07/12 04:28:43;;;;;;;;;;;;;;;13.35;80.14;102337.81;5112086;28;19935;-85
2022/07/12 04:31:09;;;;;;;;;;;;;;;13.40;79.89;102335.22;5112454;28;19920;-86
2022/07/12 04:33:35;;;;;;;;;;;;;;;13.43;79.95;102343.03;5114450;28;19950;-85
2022/07/12 04:36:00;;;;;;;;;;;;;;;13.44;79.90;102339.56;5116254;28;20310;-85
2022/07/12 04:38:25;;;;;;;;;;;;;;;13.48;79.94;102350.84;5116928;28;19918;-85
2022/07/12 04:40:51;;;;;;;;;;;;;;;13.51;80.24;102354.28;5115664;28;19923;-84
2022/07/12 04:43:16;;;;;;;;;;;;;;;13.56;80.03;102354.28;5116211;28;19915;-85
2022/07/12 04:45:43;;;;;;;;;;;;;;;13.60;80.16;102348.19;5102118;28;19912;-85
2022/07/12 04:48:09;;;;;;;;;;;;;;;13.65;79.98;102348.16;5095872;28;20075;-86
2022/07/12 04:50:34;;;;;;;;;;;;;;;13.68;80.15;102343.78;5095863;28;19912;-84
2022/07/12 04:52:59;;;;;;;;;;;;;;;13.72;80.39;102347.25;5095756;28;19962;-85
2022/07/12 04:55:24;;;;;;;;;;;;;;;13.75;80.25;102345.50;5096081;28;20014;-85
2022/07/12 04:57:50;;;;;;;;;;;;;;;13.81;80.48;102343.75;5095169;28;19912;-84
2022/07/12 05:00:15;;;;;;;;;;;;;;;13.87;80.43;102355.03;5096058;28;19919;-85
2022/07/12 05:02:40;;;;;;;;;;;;;;;13.93;80.45;102343.69;5096120;28;20003;-83
2022/07/12 05:05:05;;;;;;;;;;;;;;;13.97;80.04;102349.75;5095321;28;20000;-87
2022/07/12 05:07:31;;;;;;;;;;;;;;;14.03;80.54;102339.25;5096210;28;20030;-85
2022/07/12 05:09:56;;;;;;;;;;;;;;;14.08;80.66;102341.84;5105866;28;19911;-85
2022/07/12 05:12:21;;;;;;;;;;;;;;;14.14;80.48;102354.88;5110761;28;20015;-85
2022/07/12 05:14:46;;;;;;;;;;;;;;;14.20;80.70;102360.94;5095586;28;19912;-85
2022/07/12 05:17:11;;;;;;;;;;;;;;;14.27;80.80;102366.09;5094950;28;19927;-84
2022/07/12 05:19:37;;;;;;;;;;;;;;;14.32;80.68;102370.41;5095284;28;19922;-85
2022/07/12 05:22:02;;;;;;;;;;;;;;;14.39;80.71;102376.47;5095781;28;20256;-84
2022/07/12 05:24:28;;;;;;;;;;;;;;;14.47;81.47;102376.41;5095017;28;19920;-85
2022/07/12 05:26:53;;;;;;;;;;;;;;;14.53;82.12;102371.13;5095537;28;20295;-85
2022/07/12 05:29:18;;;;;;;;;;;;;;;14.60;82.17;102379.78;5095161;28;19912;-85
2022/07/12 05:31:43;;;;;;;;;;;;;;;14.65;81.69;102386.72;5094737;28;20326;-85
2022/07/12 05:34:08;;;;;;;;;;;;;;;14.74;81.67;102387.59;5094945;28;20440;-85
2022/07/12 05:36:34;;;;;;;;;;;;;;;14.80;81.74;102392.75;5095635;28;19958;-83
2022/07/12 05:38:59;;;;;;;;;;;;;;;14.86;81.68;102397.91;5114581;28;20264;-84
2022/07/12 05:41:24;;;;;;;;;;;;;;;14.92;81.83;102397.88;5100821;28;19923;-84
2022/07/12 05:43:49;;;;;;;;;;;;;;;15.00;81.58;102407.38;5094937;28;19912;-84
2022/07/12 05:46:14;;;;;;;;;;;;;;;15.10;83.11;102399.47;5094676;28;20279;-85
2022/07/12 05:48:40;;;;;;;;;;;;;;;15.19;82.77;102398.50;5095207;28;19912;-84
2022/07/12 05:53:49;;;;;;;;;;;;;;;15.42;84.38;102400.03;5094681;28;19927;-87
2022/07/12 05:56:14;;;;;;;;;;;;;;;15.51;83.36;102410.38;5095472;28;19912;-88
2022/07/12 05:58:39;;;;;;;;;;;;;;;15.63;82.96;102411.97;5095115;28;19919;-88
2022/07/12 06:01:05;;;;;;;;;;;;;;;15.76;86.28;102417.97;5093589;28;19916;-86
2022/07/12 06:03:30;;;;;;;;;;;;;;;15.83;83.98;102417.00;5095296;28;19912;-86
2022/07/12 06:05:55;;;;;;;;;;;;;;;15.95;85.09;102420.38;5095017;28;19935;-88
2022/07/12 06:08:21;;;;;;;;;;;;;;;16.04;84.73;102420.25;5100978;28;19926;-85
2022/07/12 06:10:46;;;;;;;;;;;;;;;16.14;83.71;102424.47;5113435;28;19919;-87
2022/07/12 06:13:11;;;;;;;;;;;;;;;16.32;85.96;102423.38;5114362;28;19955;-88
2022/07/12 06:15:39;;;;;;;;;;;;;;;16.61;85.49;102421.19;5114833;28;20278;-88
2022/07/12 06:18:04;;;;;;;;;;;;;;;17.43;81.18;102422.44;5114828;28;20004;-87
2022/07/12 06:20:30;;;;;;;;;;;;;;;18.05;82.26;102416.84;5115075;28;20010;-85
2022/07/12 06:22:55;;;;;;;;;;;;;;;18.50;81.63;102428.13;5113958;28;19915;-86
2022/07/12 06:25:20;;;;;;;;;;;;;;;18.59;80.16;102432.31;5115209;28;19915;-87
2022/07/12 06:27:47;;;;;;;;;;;;;;;18.73;80.44;102434.59;5114361;28;19953;-86
2022/07/12 06:30:14;;;;;;;;;;;;;;;18.86;79.05;102433.41;5114615;28;19926;-88
2022/07/12 06:32:39;;;;;;;;;;;;;;;18.86;76.15;102433.41;5115490;28;19939;-87
2022/07/12 06:35:05;;;;;;;;;;;;;;;18.93;78.13;102428.84;5114525;28;19942;-88
2022/07/12 06:37:30;;;;;;;;;;;;;;;19.07;77.87;102429.41;5097166;28;19912;-88
2022/07/12 06:39:55;;;;;;;;;;;;;;;19.34;77.81;102432.19;5094796;28;19908;-88
2022/07/12 06:42:20;;;;;;;;;;;;;;;19.69;77.58;102422.44;5096151;28;19922;-92
2022/07/12 06:44:54;;;;;;;;;;;;;;;20.04;75.86;102428.50;5096175;28;19919;-92
2022/07/12 06:47:19;;;;;;;;;;;;;;;20.20;75.01;102434.16;5105386;28;19908;-90
2022/07/12 06:49:44;;;;;;;;;;;;;;;20.38;74.54;102429.19;5091869;28;19973;-84
2022/07/12 06:52:09;;;;;;;;;;;;;;;20.62;73.89;102427.56;5091805;28;19947;-84
2022/07/12 06:54:35;;;;;;;;;;;;;;;20.84;72.93;102421.63;5093156;28;19912;-85
2022/07/12 06:57:00;;;;;;;;;;;;;;;21.01;73.17;102431.59;5091309;28;20012;-86
2022/07/12 06:59:25;;;;;;;;;;;;;;;21.13;73.35;102431.19;5093702;28;20011;-85
2022/07/12 07:01:52;;;;;;;;;;;;;;;21.33;72.00;102426.13;5093352;28;19942;-84
2022/07/12 07:04:17;;;;;;;;;;;;;;;21.46;71.17;102427.38;5101210;28;19915;-84
2022/07/12 07:06:42;;;;;;;;;;;;;;;21.54;70.29;102432.38;5114078;28;19911;-84
2022/07/12 07:09:07;;;;;;;;;;;;;;;21.57;70.04;102440.22;5113493;28;20328;-83
2022/07/12 07:11:33;;;;;;;;;;;;;;;21.60;69.79;102434.84;5112986;28;20006;-84
2022/07/12 07:13:58;;;;;;;;;;;;;;;21.66;71.40;102436.41;5113480;28;19919;-88
2022/07/12 07:16:24;;;;;;;;;;;;;;;21.82;70.15;102434.91;5114164;28;20366;-85
2022/07/12 07:18:50;;;;;;;;;;;;;;;21.98;70.34;102435.19;5112550;28;19919;-84
2022/07/12 07:21:15;;;;;;;;;;;;;;;22.12;70.52;102431.16;5113898;28;19918;-84
2022/07/12 07:23:40;;;;;;;;;;;;;;;22.29;70.14;102428.69;5113722;28;19950;-84
2022/07/12 07:26:06;;;;;;;;;;;;;;;22.51;67.41;102427.88;5113022;28;19919;-85
2022/07/12 07:28:31;;;;;;;;;;;;;;;22.67;69.35;102422.81;5109383;28;19988;-84
2022/07/12 07:30:57;;;;;;;;;;;;;;;22.88;68.74;102430.78;5092159;28;19999;-84
2022/07/12 07:33:23;;;;;;;;;;;;;;;23.09;68.65;102434.28;5111904;28;19916;-85
2022/07/12 07:35:49;;;;;;;;;;;;;;;23.30;68.60;102424.56;5113237;28;20317;-85
2022/07/12 07:38:15;;;;;;;;;;;;;;;23.48;67.70;102430.84;5112420;28;19926;-85
2022/07/12 07:40:40;;;;;;;;;;;;;;;23.56;66.46;102417.25;5113776;28;19912;-85
2022/07/12 07:43:05;;;;;;;;;;;;;;;23.67;65.81;102420.28;5113403;28;19918;-86
2022/07/12 07:45:30;;;;;;;;;;;;;;;23.73;62.01;102421.78;5113180;28;19912;-85
2022/07/12 07:47:55;;;;;;;;;;;;;;;23.69;64.78;102415.75;5112917;28;19911;-84
2022/07/12 07:50:20;;;;;;;;;;;;;;;23.60;65.23;102414.38;5113540;28;19916;-83
2022/07/12 07:52:48;;;;;;;;;;;;;;;23.54;63.13;102424.41;5112435;28;19912;-87
2022/07/12 07:55:14;;;;;;;;;;;;;;;23.44;63.55;102421.28;5113515;28;19911;-85
2022/07/12 07:57:39;;;;;;;;;;;;;;;23.32;62.37;102422.72;5113616;28;19912;-84
2022/07/12 08:00:04;;;;;;;;;;;;;;;23.21;64.88;102427.63;5111544;28;19915;-85
2022/07/12 08:02:29;;;;;;;;;;;;;;;23.20;65.18;102425.91;5113177;28;19922;-85
2022/07/12 08:04:55;;;;;;;;;;;;;;;23.24;64.02;102417.75;5113407;28;20010;-84
2022/07/12 08:07:20;;;;;;;;;;;;;;;23.32;65.34;102421.84;5113706;28;20008;-84
2022/07/12 08:09:45;;;;;;;;;;;;;;;23.43;65.60;102415.16;5080265;22;19920;-84
2022/07/12 08:12:10;;;;;;;;;;;;;;;23.42;63.02;102421.38;5056302;28;20280;-84
2022/07/12 08:14:35;;;;;;;;;;;;;;;23.33;64.33;102416.50;5056408;28;19967;-85
2022/07/12 08:17:01;;;;;;;;;;;;;;;23.33;63.95;102418.25;5056619;28;19913;-84
2022/07/12 08:19:26;;;;;;;;;;;;;;;23.43;64.64;102417.81;5056730;28;19955;-84
2022/07/12 08:21:51;;;;;;;;;;;;;;;23.59;64.40;102417.09;5055608;28;20388;-85
2022/07/12 08:24:16;;;;;;;;;;;;;;;23.68;64.00;102416.69;5056623;28;19912;-85
2022/07/12 08:26:41;;;;;;;;;;;;;;;23.78;63.51;102421.56;5056657;28;19925;-84
2022/07/12 08:29:07;;;;;;;;;;;;;;;23.83;63.62;102420.41;5055321;28;19912;-84
2022/07/12 08:31:32;;;;;;;;;;;;;;;23.93;60.98;102419.97;5056677;28;19916;-85
2022/07/12 08:33:57;;;;;;;;;;;;;;;24.04;62.69;102423.88;5056406;28;20230;-84
2022/07/12 08:36:22;;;;;;;;;;;;;;;24.12;57.57;102428.81;5055735;28;20053;-85
2022/07/12 08:38:48;;;;;;;;;;;;;;;24.08;61.70;102429.91;5056287;28;20384;-85
2022/07/12 08:41:13;;;;;;;;;;;;;;;24.06;61.90;102429.97;5055461;28;19919;-84
2022/07/12 08:43:39;;;;;;;;;;;;;;;24.03;61.78;102431.91;5055877;28;19913;-87
2022/07/12 08:46:05;;;;;;;;;;;;;;;24.04;61.47;102433.63;5055903;28;20287;-85
2022/07/12 08:48:31;;;;;;;;;;;;;;;24.08;62.41;102435.22;5055627;28;20016;-84
2022/07/12 08:51:12;;;;;;;;;;;;;;;24.15;59.44;102439.28;5055395;28;20003;-84
2022/07/12 08:53:38;;;;;;;;;;;;;;;24.23;62.00;102444.22;5055476;28;20369;-85
2022/07/12 08:56:04;;;;;;;;;;;;;;;24.36;60.06;102444.47;5054443;28;19917;-84
2022/07/12 08:58:29;;;;;;;;;;;;;;;24.45;59.76;102438.72;5056323;28;19920;-84
2022/07/12 09:00:54;;;;;;;;;;;;;;;24.59;61.53;102445.16;5055339;28;20315;-84
2022/07/12 09:03:19;;;;;;;;;;;;;;;24.75;61.20;102440.84;5055306;28;20265;-85
2022/07/12 09:05:52;;;;;;;;;;;;;;;24.94;60.41;102442.53;5055894;28;19919;-84
2022/07/12 09:08:18;;;;;;;;;;;;;;;25.09;60.49;102441.75;5055531;28;20355;-85
2022/07/12 09:10:49;;;;;;;;;;;;;;;25.21;59.71;102434.09;5054824;28;19924;-85
2022/07/12 09:13:14;;;;;;;;;;;;;;;25.25;59.27;102446.25;5054466;28;19919;-84
2022/07/12 09:15:40;;;;;;;;;;;;;;;25.33;57.16;102440.56;5055270;28;19917;-84
2022/07/12 09:18:12;;;;;;;;;;;;;;;25.37;57.81;102440.31;5053974;28;20319;-85
2022/07/12 09:20:38;;;;;;;;;;;;;;;25.39;57.49;102437.59;5055233;28;20348;-85
2022/07/12 09:23:04;;;;;;;;;;;;;;;25.37;57.96;102442.97;5055040;28;19912;-85
2022/07/12 09:25:30;;;;;;;;;;;;;;;25.41;57.46;102436.59;5054887;28;19924;-84
2022/07/12 09:27:57;;;;;;;;;;;;;;;25.56;57.45;102439.34;5055051;28;19976;-84
2022/07/12 09:30:23;;;;;;;;;;;;;;;25.64;57.78;102434.50;5055395;28;20385;-84
2022/07/12 09:36:07;;;;;;;;;;;;;;;25.54;57.21;102430.63;5054647;28;19923;-80
2022/07/12 09:38:33;;;;;;;;;;;;;;;25.73;55.76;102425.13;5054790;28;19924;-84
2022/07/12 09:40:58;;;;;;;;;;;;;;;25.75;53.77;102423.25;5054969;28;20389;-83
2022/07/12 09:43:23;;;;;;;;;;;;;;;25.69;55.99;102423.59;5054676;28;20326;-83
2022/07/12 09:45:49;;;;;;;;;;;;;;;25.65;55.55;102422.03;5053884;28;20273;-83
2022/07/12 09:48:15;;;;;;;;;;;;;;;25.74;56.73;102429.50;5054827;28;20329;-84
2022/07/12 09:50:41;;;;;;;;;;;;;;;25.79;56.10;102424.81;5054774;28;20391;-84
2022/07/12 09:53:09;;;;;;;;;;;;;;;25.85;56.40;102420.94;5053942;28;19923;-84
2022/07/12 09:55:36;;;;;;;;;;;;;;;26.01;56.88;102415.63;5054385;28;20038;-86
2022/07/12 09:58:02;;;;;;;;;;;;;;;26.23;56.25;102419.75;5054251;28;19985;-81
2022/07/12 10:00:28;;;;;;;;;;;;;;;26.29;55.01;102422.09;5054101;28;19920;-82
2022/07/12 10:02:55;;;;;;;;;;;;;;;26.33;52.35;102407.66;5054779;28;19913;-89
2022/07/12 10:05:20;;;;;;;;;;;;;;;26.35;55.12;102411.91;5055060;28;19912;-83
2022/07/12 10:07:46;;;;;;;;;;;;;;;26.54;54.45;102412.66;5053868;28;19920;-83
2022/07/12 10:10:11;;;;;;;;;;;;;;;26.68;54.01;102407.38;5054200;28;19939;-84
2022/07/12 10:12:37;;;;;;;;;;;;;;;26.77;52.38;102411.31;5054093;28;20332;-83
2022/07/12 10:15:15;;;;;;;;;;;;;;;26.81;53.85;102413.72;5053724;28;19974;-84
2022/07/12 10:17:43;;;;;;;;;;;;;;;26.81;53.54;102403.09;5054675;28;19966;-84
2022/07/12 10:20:19;;;;;;;;;;;;;;;26.98;53.41;102401.19;5053339;28;20731;-84
2022/07/12 10:22:45;;;;;;;;;;;;;;;27.01;51.57;102398.34;5054114;28;19913;-84
2022/07/12 10:25:25;;;;;;;;;;;;;;;26.90;52.84;102399.00;5054074;28;19913;-84
2022/07/12 10:27:50;;;;;;;;;;;;;;;26.84;52.40;102401.19;5053195;28;19913;-84
2022/07/12 10:30:17;;;;;;;;;;;;;;;26.80;50.55;102397.81;5054031;28;19967;-84
2022/07/12 10:32:44;;;;;;;;;;;;;;;26.84;52.42;102395.84;5053782;28;20292;-84
2022/07/12 10:35:13;;;;;;;;;;;;;;;26.86;51.76;102399.25;5053293;28;19916;-84
2022/07/12 10:37:39;;;;;;;;;;;;;;;26.99;51.23;102400.25;5054132;28;19940;-83
2022/07/12 10:40:10;;;;;;;;;;;;;;;27.10;50.33;102396.94;5053168;28;20380;-82
2022/07/12 10:42:35;;;;;;;;;;;;;;;27.28;50.46;102394.94;5053168;28;20007;-84
2022/07/12 10:45:14;;;;;;;;;;;;;;;27.47;49.53;102386.69;5053781;28;20015;-83
2022/07/12 10:47:55;;;;;;;;;;;;;;;27.52;50.19;102395.22;5053756;28;19958;-84
2022/07/12 10:50:39;;;;;;;;;;;;;;;27.60;50.47;102392.09;5053782;28;19919;-83
2022/07/12 10:53:23;;;;;;;;;;;;;;;27.72;50.62;102385.09;5053507;28;19920;-83
2022/07/12 10:56:21;;;;;;;;;;;;;;;27.87;49.77;102396.59;5053360;28;19913;-82
2022/07/12 10:58:47;;;;;;;;;;;;;;;28.01;49.52;102387.72;5020467;28;19913;-82
2022/07/12 11:01:17;;;;;;;;;;;;;;;28.03;49.39;102399.13;5053027;28;19928;-82
2022/07/12 11:03:56;;;;;;;;;;;;;;;28.04;49.24;102398.16;5053481;28;19916;-83
2022/07/12 11:06:23;;;;;;;;;;;;;;;28.10;50.02;102395.13;5052310;28;19971;-85
2022/07/12 11:08:51;;;;;;;;;;;;;;;28.14;49.76;102398.44;5051087;28;19916;-85
2022/07/12 11:11:17;;;;;;;;;;;;;;;28.22;48.42;102400.63;5051718;28;19913;-85
2022/07/12 11:13:42;;;;;;;;;;;;;;;28.27;48.36;102391.34;5052861;28;19920;-86
2022/07/12 11:16:07;;;;;;;;;;;;;;;28.25;48.76;102401.25;5052144;28;20417;-85
2022/07/12 11:18:34;;;;;;;;;;;;;;;28.20;47.03;102392.72;5053487;28;19913;-85
2022/07/12 11:21:00;;;;;;;;;;;;;;;28.19;42.57;102393.69;5053100;28;19932;-86
2022/07/12 11:23:28;;;;;;;;;;;;;;;28.19;47.71;102383.84;5052743;28;19912;-85
2022/07/12 11:25:59;;;;;;;;;;;;;;;28.25;47.35;102389.75;5053084;28;19946;-84
2022/07/12 11:28:26;;;;;;;;;;;;;;;28.27;46.46;102387.81;5053499;28;19974;-85
2022/07/12 11:30:51;;;;;;;;;;;;;;;28.35;45.53;102378.34;5052402;28;20066;-84
2022/07/12 11:33:17;;;;;;;;;;;;;;;28.44;44.88;102378.66;5052708;28;19996;-85
2022/07/12 11:35:46;;;;;;;;;;;;;;;28.47;47.34;102376.66;5053172;28;19954;-85
2022/07/12 11:38:11;;;;;;;;;;;;;;;28.53;46.46;102378.06;5052152;28;19938;-84
2022/07/12 11:40:36;;;;;;;;;;;;;;;28.59;44.45;102376.78;5053050;28;20006;-85
2022/07/12 11:43:03;;;;;;;;;;;;;;;28.60;46.57;102371.34;5052921;28;19916;-85
2022/07/12 11:45:29;;;;;;;;;;;;;;;28.55;45.34;102376.13;5052345;28;20006;-86
2022/07/12 11:47:56;;;;;;;;;;;;;;;28.61;46.45;102377.53;5052964;28;19912;-85
2022/07/12 11:50:21;;;;;;;;;;;;;;;28.70;46.54;102381.38;5053212;28;19909;-85
2022/07/12 11:52:46;;;;;;;;;;;;;;;28.77;46.61;102372.88;5052338;28;19913;-85
2022/07/12 11:55:12;;;;;;;;;;;;;;;28.91;46.00;102379.09;5052713;28;20378;-86
2022/07/12 11:57:37;;;;;;;;;;;;;;;29.05;46.35;102381.63;5053319;28;20326;-87
2022/07/12 12:00:16;;;;;;;;;;;;;;;29.18;43.50;102373.63;5051712;28;19917;-86
2022/07/12 12:02:41;;;;;;;;;;;;;;;29.14;42.80;102372.13;5048384;28;19908;-87
2022/07/12 12:05:06;;;;;;;;;;;;;;;29.08;45.59;102365.38;5053384;28;20026;-86
2022/07/12 12:07:32;;;;;;;;;;;;;;;29.14;46.45;102369.44;5052530;28;19920;-84
2022/07/12 12:09:57;;;;;;;;;;;;;;;29.22;46.39;102371.56;5052280;28;19923;-85
2022/07/12 12:12:23;;;;;;;;;;;;;;;29.32;42.66;102359.25;5052370;28;19913;-85
2022/07/12 12:14:48;;;;;;;;;;;;;;;29.45;45.73;102361.09;5052624;28;19912;-85
2022/07/12 12:17:13;;;;;;;;;;;;;;;29.52;41.59;102365.00;5052728;28;19912;-85
2022/07/12 12:19:42;;;;;;;;;;;;;;;29.62;45.29;102358.03;5052239;28;19920;-86
2022/07/12 12:22:26;;;;;;;;;;;;;;;29.77;44.47;102353.41;5053026;28;19913;-87
2022/07/12 12:24:58;;;;;;;;;;;;;;;29.92;45.32;102355.88;5052886;28;20392;-89
2022/07/12 12:27:24;;;;;;;;;;;;;;;30.00;43.31;102353.53;5052645;28;19970;-86
2022/07/12 12:29:51;;;;;;;;;;;;;;;29.99;40.07;102355.34;5053385;28;19966;-87
2022/07/12 12:32:17;;;;;;;;;;;;;;;29.89;42.19;102359.66;5053288;28;20280;-87
2022/07/12 12:34:42;;;;;;;;;;;;;;;29.84;39.46;102356.44;5052416;28;19916;-88
2022/07/12 12:37:07;;;;;;;;;;;;;;;29.82;40.12;102353.06;5052858;28;20068;-90